Time;durP1;ratioP1;P1;durP2;ratioP2;P2;SDS_P1;SDS_P2;PMS_P1;PMS_P2;Temp;Humidity;BMP_temperature;BMP_pressure;BME280_temperature;BME280_humidity;BME280_pressure;Samples;Min_cycle;Max_cycle;Signal;HPM_P1;HPM_P2
2022/04/13 00:02:01;;;;;;;20.42;9.40;;;;;;;;;;4939281;29;20079;-84
2022/04/13 00:04:28;;;;;;;17.17;9.65;;;;;;;;;;4957232;28;20047;-84
2022/04/13 00:06:55;;;;;;;14.68;8.40;;;;;;;;;;4939082;28;20445;-83
2022/04/13 00:09:22;;;;;;;17.80;8.90;;;;;;;;;;4936953;29;20396;-85
2022/04/13 00:11:51;;;;;;;18.40;8.98;;;;;;;;;;4939162;29;20540;-85
2022/04/13 00:14:22;;;;;;;17.77;9.05;;;;;;;;;;4939378;29;20084;-84
2022/04/13 00:16:51;;;;;;;23.70;8.95;;;;;;;;;;4940158;29;20097;-84
2022/04/13 00:19:20;;;;;;;21.92;8.95;;;;;;;;;;4938388;29;20133;-85
2022/04/13 00:21:48;;;;;;;14.45;8.77;;;;;;;;;;4947834;23;20051;-73
2022/04/13 00:24:15;;;;;;;22.13;9.00;;;;;;;;;;4945999;29;20051;-72
2022/04/13 00:26:42;;;;;;;19.13;8.65;;;;;;;;;;4932528;29;20418;-73
2022/04/13 00:29:10;;;;;;;18.00;7.97;;;;;;;;;;4932057;29;20136;-73
2022/04/13 00:31:37;;;;;;;16.30;9.18;;;;;;;;;;4936784;29;20238;-73
2022/04/13 00:34:04;;;;;;;15.68;8.90;;;;;;;;;;4948382;29;20130;-74
2022/04/13 00:36:31;;;;;;;24.42;9.40;;;;;;;;;;4938599;29;20134;-73
2022/04/13 00:38:59;;;;;;;16.98;8.55;;;;;;;;;;4930492;29;20900;-73
2022/04/13 00:41:26;;;;;;;17.35;8.95;;;;;;;;;;4931702;29;20167;-73
2022/04/13 00:44:07;;;;;;;16.75;8.23;;;;;;;;;;4939684;29;20162;-73
2022/04/13 00:46:34;;;;;;;17.58;8.65;;;;;;;;;;4938249;29;20639;-72
2022/04/13 00:49:02;;;;;;;18.50;8.68;;;;;;;;;;4930587;29;20059;-73
2022/04/13 00:54:49;;;;;;;19.77;8.32;;;;;;;;;;4938106;29;20049;-73
2022/04/13 00:57:18;;;;;;;18.52;9.18;;;;;;;;;;4941996;29;20520;-73
2022/04/13 00:59:48;;;;;;;18.38;8.45;;;;;;;;;;4931519;29;20083;-73
2022/04/13 01:02:16;;;;;;;14.38;8.35;;;;;;;;;;4931781;29;20198;-73
2022/04/13 01:04:46;;;;;;;20.98;8.88;;;;;;;;;;4930885;29;20560;-73
2022/04/13 01:07:27;;;;;;;17.58;8.80;;;;;;;;;;4917168;29;20060;-85
2022/04/13 01:09:54;;;;;;;19.45;8.88;;;;;;;;;;4935880;29;20162;-85
2022/04/13 01:12:21;;;;;;;16.17;8.25;;;;;;;;;;4937087;29;20086;-85
2022/04/13 01:14:48;;;;;;;17.88;9.07;;;;;;;;;;4937770;29;20131;-85
2022/04/13 01:17:16;;;;;;;19.30;8.98;;;;;;;;;;4937186;29;20086;-85
2022/04/13 01:19:46;;;;;;;18.00;8.85;;;;;;;;;;4937872;29;20048;-84
2022/04/13 01:22:15;;;;;;;19.08;9.60;;;;;;;;;;4934106;29;20782;-84
2022/04/13 01:24:42;;;;;;;16.83;9.32;;;;;;;;;;4947291;29;20149;-85
2022/04/13 01:27:09;;;;;;;17.17;8.75;;;;;;;;;;4939875;29;20138;-84
2022/04/13 01:29:37;;;;;;;20.05;9.10;;;;;;;;;;4937550;29;20044;-87
2022/04/13 01:32:04;;;;;;;20.17;9.18;;;;;;;;;;4938291;29;20101;-84
2022/04/13 01:34:31;;;;;;;19.67;10.05;;;;;;;;;;4936433;29;20048;-83
2022/04/13 01:36:58;;;;;;;20.48;9.13;;;;;;;;;;4935343;29;20782;-83
2022/04/13 01:39:25;;;;;;;20.17;10.35;;;;;;;;;;4936759;29;20043;-83
2022/04/13 01:41:52;;;;;;;16.77;9.30;;;;;;;;;;4935651;29;20086;-83
2022/04/13 01:44:20;;;;;;;19.20;9.40;;;;;;;;;;4936677;29;20397;-83
2022/04/13 01:46:47;;;;;;;18.95;8.88;;;;;;;;;;4948005;29;20080;-83
2022/04/13 01:49:14;;;;;;;23.15;9.73;;;;;;;;;;4932588;29;20051;-83
2022/04/13 01:51:41;;;;;;;24.52;10.23;;;;;;;;;;4936380;29;20094;-83
2022/04/13 01:54:08;;;;;;;18.88;9.50;;;;;;;;;;4936496;29;20134;-84
2022/04/13 01:56:35;;;;;;;19.08;10.73;;;;;;;;;;4943676;29;20048;-83
2022/04/13 01:59:02;;;;;;;19.48;9.50;;;;;;;;;;4951196;29;20077;-83
2022/04/13 02:01:31;;;;;;;18.05;9.70;;;;;;;;;;4936646;29;20130;-83
2022/04/13 02:03:58;;;;;;;17.77;10.00;;;;;;;;;;4936234;29;20047;-83
2022/04/13 02:06:26;;;;;;;18.40;9.50;;;;;;;;;;4936251;29;20569;-83
2022/04/13 02:08:53;;;;;;;16.98;9.82;;;;;;;;;;4935897;29;20107;-84
2022/04/13 02:11:21;;;;;;;22.65;10.40;;;;;;;;;;4934780;29;20090;-83
2022/04/13 02:13:48;;;;;;;20.92;10.05;;;;;;;;;;4934859;29;20150;-83
2022/04/13 02:16:15;;;;;;;22.08;10.48;;;;;;;;;;4935865;29;20130;-83
2022/04/13 02:18:42;;;;;;;22.23;10.27;;;;;;;;;;4935939;29;20130;-83
2022/04/13 02:21:09;;;;;;;23.88;10.60;;;;;;;;;;4934668;29;20131;-83
2022/04/13 02:23:36;;;;;;;17.38;9.95;;;;;;;;;;4950644;29;20123;-83
2022/04/13 02:26:03;;;;;;;19.38;9.95;;;;;;;;;;4936320;29;20131;-83
2022/04/13 02:28:31;;;;;;;19.25;8.77;;;;;;;;;;4934414;29;20135;-83
2022/04/13 02:30:58;;;;;;;17.80;9.43;;;;;;;;;;4935178;29;20055;-83
2022/04/13 02:33:25;;;;;;;18.02;9.73;;;;;;;;;;4935612;29;20047;-83
2022/04/13 02:35:54;;;;;;;18.63;10.00;;;;;;;;;;4935910;29;20051;-84
2022/04/13 02:38:21;;;;;;;22.73;9.50;;;;;;;;;;4934333;29;20501;-84
2022/04/13 02:40:48;;;;;;;20.50;9.82;;;;;;;;;;4934444;29;20184;-83
2022/04/13 02:43:22;;;;;;;18.75;9.63;;;;;;;;;;4934668;29;20138;-83
2022/04/13 02:45:49;;;;;;;19.27;9.23;;;;;;;;;;4933417;29;20143;-83
2022/04/13 02:48:16;;;;;;;19.20;9.35;;;;;;;;;;4934646;29;20055;-83
2022/04/13 02:50:43;;;;;;;21.25;9.85;;;;;;;;;;4934440;29;20083;-83
2022/04/13 02:53:10;;;;;;;15.98;8.68;;;;;;;;;;4935557;29;20786;-84
2022/04/13 02:55:38;;;;;;;17.88;8.93;;;;;;;;;;4930143;29;20108;-84
2022/04/13 02:58:05;;;;;;;20.80;9.48;;;;;;;;;;4929478;29;20063;-85
2022/04/13 03:00:32;;;;;;;27.67;9.82;;;;;;;;;;4945666;29;20083;-84
2022/04/13 03:02:59;;;;;;;19.00;9.43;;;;;;;;;;4933498;29;20056;-84
2022/04/13 03:05:28;;;;;;;18.58;9.63;;;;;;;;;;4934323;29;20112;-83
2022/04/13 03:07:55;;;;;;;22.75;9.85;;;;;;;;;;4939422;29;20107;-85
2022/04/13 03:10:22;;;;;;;20.45;9.68;;;;;;;;;;4935285;29;20052;-84
2022/04/13 03:12:49;;;;;;;24.25;8.77;;;;;;;;;;4934879;29;20126;-85
2022/04/13 03:15:18;;;;;;;18.45;9.82;;;;;;;;;;4934062;29;20131;-84
2022/04/13 03:17:45;;;;;;;19.08;9.23;;;;;;;;;;4935240;29;20425;-84
2022/04/13 03:20:13;;;;;;;19.35;9.57;;;;;;;;;;4935017;29;20056;-84
2022/04/13 03:22:40;;;;;;;24.38;11.38;;;;;;;;;;4935250;29;20059;-84
2022/04/13 03:25:07;;;;;;;24.27;10.10;;;;;;;;;;4953445;29;20496;-84
2022/04/13 03:27:34;;;;;;;22.15;10.35;;;;;;;;;;4947293;28;20120;-84
2022/04/13 03:30:01;;;;;;;23.17;9.80;;;;;;;;;;4934756;29;20142;-84
2022/04/13 03:32:35;;;;;;;19.65;9.27;;;;;;;;;;4933636;29;20039;-84
2022/04/13 03:35:03;;;;;;;21.80;9.48;;;;;;;;;;4934736;29;20071;-84
2022/04/13 03:37:30;;;;;;;19.95;9.48;;;;;;;;;;4937121;29;20098;-83
2022/04/13 03:39:57;;;;;;;19.90;9.02;;;;;;;;;;4934825;29;20146;-83
2022/04/13 03:42:24;;;;;;;22.63;10.13;;;;;;;;;;4935651;29;20079;-84
2022/04/13 03:44:51;;;;;;;22.67;9.45;;;;;;;;;;4933603;29;20043;-86
2022/04/13 03:47:18;;;;;;;18.98;10.18;;;;;;;;;;4935779;29;20043;-86
2022/04/13 03:49:45;;;;;;;20.15;10.35;;;;;;;;;;4934970;29;20079;-84
2022/04/13 03:52:13;;;;;;;17.13;9.23;;;;;;;;;;4941452;29;20143;-84
2022/04/13 03:54:40;;;;;;;22.00;9.30;;;;;;;;;;4954532;29;20109;-83
2022/04/13 03:57:07;;;;;;;25.25;10.38;;;;;;;;;;4966310;28;20071;-83
2022/04/13 03:59:34;;;;;;;20.98;10.00;;;;;;;;;;4933306;29;20091;-83
2022/04/13 04:02:02;;;;;;;26.27;11.02;;;;;;;;;;4932882;29;20734;-83
2022/04/13 04:04:29;;;;;;;23.20;10.60;;;;;;;;;;4934323;29;20622;-84
2022/04/13 04:06:56;;;;;;;18.80;9.90;;;;;;;;;;4934369;29;20056;-83
2022/04/13 04:09:23;;;;;;;19.27;10.60;;;;;;;;;;4933987;29;20051;-83
2022/04/13 04:11:51;;;;;;;22.42;12.02;;;;;;;;;;4934212;29;20059;-84
2022/04/13 04:14:18;;;;;;;22.95;9.95;;;;;;;;;;4935031;29;20075;-84
2022/04/13 04:16:45;;;;;;;20.65;10.07;;;;;;;;;;4933761;29;20091;-83
2022/04/13 04:19:12;;;;;;;26.15;10.07;;;;;;;;;;4934322;29;20131;-83
2022/04/13 04:21:39;;;;;;;20.40;9.57;;;;;;;;;;4933740;29;20162;-83
2022/04/13 04:24:06;;;;;;;29.95;9.57;;;;;;;;;;4945140;29;20548;-84
2022/04/13 04:26:34;;;;;;;21.70;9.40;;;;;;;;;;4942764;29;20098;-83
2022/04/13 04:29:01;;;;;;;19.35;9.30;;;;;;;;;;4933804;29;20048;-83
2022/04/13 04:34:14;;;;;;;23.52;9.95;;;;;;;;;;4927145;29;20091;-85
2022/04/13 04:36:42;;;;;;;18.33;9.60;;;;;;;;;;4932626;29;20043;-83
2022/04/13 04:39:09;;;;;;;25.15;10.20;;;;;;;;;;4930191;29;20051;-83
2022/04/13 04:41:36;;;;;;;34.72;10.50;;;;;;;;;;4930707;29;20095;-83
2022/04/13 04:44:03;;;;;;;25.42;10.40;;;;;;;;;;4934198;29;20657;-82
2022/04/13 04:46:31;;;;;;;25.48;11.27;;;;;;;;;;4929447;29;20505;-83
2022/04/13 04:48:58;;;;;;;28.15;10.52;;;;;;;;;;4937597;29;20059;-85
2022/04/13 04:51:25;;;;;;;25.73;10.27;;;;;;;;;;4943095;29;20110;-85
2022/04/13 04:53:52;;;;;;;23.40;11.25;;;;;;;;;;4946798;29;20079;-85
2022/04/13 04:56:19;;;;;;;28.58;10.38;;;;;;;;;;4938231;29;20087;-85
2022/04/13 04:58:46;;;;;;;25.52;10.60;;;;;;;;;;4938460;29;20087;-86
2022/04/13 05:01:14;;;;;;;27.42;10.77;;;;;;;;;;4939148;29;20730;-82
2022/04/13 05:03:43;;;;;;;30.88;10.18;;;;;;;;;;4936736;29;20051;-83
2022/04/13 05:06:10;;;;;;;24.10;10.35;;;;;;;;;;4946889;29;20056;-85
2022/04/13 05:08:39;;;;;;;17.38;9.82;;;;;;;;;;4935145;29;20512;-84
2022/04/13 05:11:06;;;;;;;22.95;11.07;;;;;;;;;;4936614;29;20433;-86
2022/04/13 05:13:33;;;;;;;24.67;9.82;;;;;;;;;;4936590;29;20047;-85
2022/04/13 05:16:00;;;;;;;20.95;10.63;;;;;;;;;;4936646;29;20708;-87
2022/04/13 05:18:28;;;;;;;25.45;10.25;;;;;;;;;;4937078;29;20055;-82
2022/04/13 05:20:55;;;;;;;29.25;11.30;;;;;;;;;;4935953;29;20831;-82
2022/04/13 05:23:22;;;;;;;20.77;9.40;;;;;;;;;;4936716;29;20051;-82
2022/04/13 05:25:49;;;;;;;23.20;10.65;;;;;;;;;;4935649;29;20119;-81
2022/04/13 05:28:16;;;;;;;18.92;9.70;;;;;;;;;;4935399;29;20048;-81
2022/04/13 05:30:43;;;;;;;22.17;9.90;;;;;;;;;;4935639;29;20070;-80
2022/04/13 05:33:12;;;;;;;23.55;10.18;;;;;;;;;;4934859;29;20055;-78
2022/04/13 05:35:39;;;;;;;23.27;10.02;;;;;;;;;;4940708;29;20488;-83
2022/04/13 05:38:07;;;;;;;19.35;10.02;;;;;;;;;;4938738;29;20075;-85
2022/04/13 05:40:34;;;;;;;27.33;11.15;;;;;;;;;;4943143;29;20067;-81
2022/04/13 05:43:01;;;;;;;22.80;10.90;;;;;;;;;;4952893;28;20560;-81
2022/04/13 05:45:29;;;;;;;20.88;9.85;;;;;;;;;;4935844;29;20067;-81
2022/04/13 05:48:01;;;;;;;20.38;10.98;;;;;;;;;;4935732;29;20055;-81
2022/04/13 05:50:28;;;;;;;20.80;10.60;;;;;;;;;;4935853;29;20147;-81
2022/04/13 05:52:55;;;;;;;21.77;11.23;;;;;;;;;;4934855;29;20058;-81
2022/04/13 05:55:57;;;;;;;23.15;10.27;;;;;;;;;;4935800;29;20421;-82
2022/04/13 05:58:27;;;;;;;24.50;10.13;;;;;;;;;;4936147;29;20095;-82
2022/04/13 06:00:55;;;;;;;25.27;10.27;;;;;;;;;;4935821;29;20078;-84
2022/04/13 06:03:23;;;;;;;20.50;9.73;;;;;;;;;;4936165;29;20568;-81
2022/04/13 06:06:07;;;;;;;23.48;10.70;;;;;;;;;;4934067;29;20457;-81
2022/04/13 06:08:34;;;;;;;20.25;9.93;;;;;;;;;;4935588;29;20056;-82
2022/04/13 06:11:02;;;;;;;30.58;10.48;;;;;;;;;;4933995;29;20055;-81
2022/04/13 06:13:29;;;;;;;22.80;10.35;;;;;;;;;;4935102;29;20063;-82
2022/04/13 06:15:56;;;;;;;29.00;10.52;;;;;;;;;;4935119;29;20428;-81
2022/04/13 06:18:23;;;;;;;21.73;10.00;;;;;;;;;;4935379;29;20087;-82
2022/04/13 06:20:50;;;;;;;21.08;10.52;;;;;;;;;;4935216;29;20082;-83
2022/04/13 06:23:18;;;;;;;20.80;10.48;;;;;;;;;;4935041;29;20047;-83
2022/04/13 06:25:45;;;;;;;22.33;9.88;;;;;;;;;;4935444;29;20103;-83
2022/04/13 06:28:12;;;;;;;18.13;9.85;;;;;;;;;;4941213;29;20134;-83
2022/04/13 06:30:40;;;;;;;23.92;11.10;;;;;;;;;;4933894;29;20079;-83
2022/04/13 06:33:07;;;;;;;20.83;10.20;;;;;;;;;;4934927;29;20054;-82
2022/04/13 06:35:34;;;;;;;16.45;9.68;;;;;;;;;;4933953;29;20078;-82
2022/04/13 06:38:02;;;;;;;24.67;10.55;;;;;;;;;;4933940;29;20090;-82
2022/04/13 06:40:29;;;;;;;28.70;11.13;;;;;;;;;;4947649;29;20075;-83
2022/04/13 06:42:56;;;;;;;22.10;10.13;;;;;;;;;;4935643;29;20055;-82
2022/04/13 06:45:24;;;;;;;21.23;10.35;;;;;;;;;;4950643;29;20059;-83
2022/04/13 06:47:51;;;;;;;20.58;8.85;;;;;;;;;;4929466;29;20205;-83
2022/04/13 06:50:18;;;;;;;23.92;10.93;;;;;;;;;;4930646;29;20510;-82
2022/04/13 06:52:46;;;;;;;26.30;10.68;;;;;;;;;;4932198;29;20040;-82
2022/04/13 06:55:15;;;;;;;30.05;10.18;;;;;;;;;;4934424;29;20413;-82
2022/04/13 06:57:42;;;;;;;20.10;9.95;;;;;;;;;;4934954;29;20465;-82
2022/04/13 07:00:11;;;;;;;20.58;9.07;;;;;;;;;;4934693;29;20083;-82
2022/04/13 07:02:39;;;;;;;18.55;9.57;;;;;;;;;;4933065;29;20453;-83
2022/04/13 07:05:27;;;;;;;18.60;9.50;;;;;;;;;;4933246;29;20048;-81
2022/04/13 07:07:58;;;;;;;23.90;11.30;;;;;;;;;;4933315;29;20493;-81
2022/04/13 07:10:28;;;;;;;23.52;11.32;;;;;;;;;;4947588;28;20051;-80
2022/04/13 07:12:55;;;;;;;20.05;9.93;;;;;;;;;;4916334;29;20135;-81
2022/04/13 07:15:24;;;;;;;22.60;11.25;;;;;;;;;;4938914;29;20142;-81
2022/04/13 07:17:51;;;;;;;19.25;9.98;;;;;;;;;;4932844;29;20122;-81
2022/04/13 07:20:18;;;;;;;18.95;10.23;;;;;;;;;;4933522;29;20637;-81
2022/04/13 07:22:53;;;;;;;20.80;10.00;;;;;;;;;;4944835;29;20667;-81
2022/04/13 07:25:22;;;;;;;24.52;9.75;;;;;;;;;;4950532;29;20477;-81
2022/04/13 07:27:49;;;;;;;21.13;10.68;;;;;;;;;;4939426;29;20644;-81
2022/04/13 07:30:17;;;;;;;32.33;10.80;;;;;;;;;;4932558;29;20503;-81
2022/04/13 07:32:45;;;;;;;20.77;9.88;;;;;;;;;;4932216;29;20083;-81
2022/04/13 07:35:13;;;;;;;19.90;10.52;;;;;;;;;;4931819;29;20055;-81
2022/04/13 07:37:40;;;;;;;25.38;11.30;;;;;;;;;;4932190;29;20087;-80
2022/04/13 07:40:11;;;;;;;24.25;10.63;;;;;;;;;;4924203;29;20423;-80
2022/04/13 07:42:38;;;;;;;20.10;10.07;;;;;;;;;;4930546;29;20098;-81
2022/04/13 07:45:06;;;;;;;19.77;10.55;;;;;;;;;;4913084;29;20100;-82
2022/04/13 07:47:33;;;;;;;21.08;10.73;;;;;;;;;;4932050;29;20063;-82
2022/04/13 07:50:01;;;;;;;20.15;10.10;;;;;;;;;;4931748;29;20090;-81
2022/04/13 07:52:32;;;;;;;21.08;10.45;;;;;;;;;;4931139;29;20482;-80
2022/04/13 07:54:59;;;;;;;21.90;10.85;;;;;;;;;;4931970;29;20048;-81
2022/04/13 07:57:27;;;;;;;19.73;10.45;;;;;;;;;;4930580;29;20135;-80
2022/04/13 07:59:54;;;;;;;22.08;11.77;;;;;;;;;;4931117;29;20080;-82
2022/04/13 08:02:21;;;;;;;21.95;10.85;;;;;;;;;;4933437;29;20083;-82
2022/04/13 08:04:49;;;;;;;26.00;10.75;;;;;;;;;;4939824;29;20374;-82
2022/04/13 08:07:16;;;;;;;19.88;10.30;;;;;;;;;;4935533;29;20381;-82
2022/04/13 08:09:43;;;;;;;24.17;11.82;;;;;;;;;;4932343;29;20114;-82
2022/04/13 08:12:10;;;;;;;19.55;10.80;;;;;;;;;;4929506;29;20051;-80
2022/04/13 08:14:38;;;;;;;22.45;10.95;;;;;;;;;;4947692;29;20047;-81
2022/04/13 08:17:05;;;;;;;24.00;10.40;;;;;;;;;;4930876;29;20138;-81
2022/04/13 08:19:33;;;;;;;20.55;10.98;;;;;;;;;;4932398;29;20056;-75
2022/04/13 08:22:00;;;;;;;17.90;11.02;;;;;;;;;;4930938;29;20664;-74
2022/04/13 08:24:27;;;;;;;22.55;11.10;;;;;;;;;;4932922;29;20052;-74
2022/04/13 08:26:54;;;;;;;21.67;11.00;;;;;;;;;;4932476;29;20146;-74
2022/04/13 08:29:24;;;;;;;23.13;10.68;;;;;;;;;;4932909;29;20095;-74
2022/04/13 08:31:51;;;;;;;22.08;11.38;;;;;;;;;;4935481;29;20195;-74
2022/04/13 08:34:18;;;;;;;21.73;11.85;;;;;;;;;;4952684;29;20055;-74
2022/04/13 08:36:45;;;;;;;23.17;11.23;;;;;;;;;;4933193;29;20134;-74
2022/04/13 08:39:15;;;;;;;22.95;10.95;;;;;;;;;;4932785;29;20461;-75
2022/04/13 08:41:50;;;;;;;20.15;11.10;;;;;;;;;;4930886;29;20378;-74
2022/04/13 08:44:22;;;;;;;20.27;10.68;;;;;;;;;;4934157;29;20058;-74
2022/04/13 08:46:55;;;;;;;20.90;10.10;;;;;;;;;;4946545;28;20055;-74
2022/04/13 08:49:23;;;;;;;20.90;10.40;;;;;;;;;;4946355;29;20055;-74
2022/04/13 08:52:00;;;;;;;23.63;11.23;;;;;;;;;;4939998;28;20417;-82
2022/04/13 08:54:29;;;;;;;21.27;10.40;;;;;;;;;;4936442;29;20490;-83
2022/04/13 08:56:57;;;;;;;24.77;11.23;;;;;;;;;;4934977;29;20059;-83
2022/04/13 09:00:14;;;;;;;16.30;10.43;;;;;;;;;;4934732;29;20047;-81
2022/04/13 09:02:47;;;;;;;20.17;11.02;;;;;;;;;;4922595;29;20051;-81
2022/04/13 09:05:25;;;;;;;22.33;10.25;;;;;;;;;;4937968;29;20052;-81
2022/04/13 09:08:05;;;;;;;21.45;10.63;;;;;;;;;;4934023;29;20079;-82
2022/04/13 09:10:32;;;;;;;19.88;10.43;;;;;;;;;;4949996;29;20063;-82
2022/04/13 09:13:00;;;;;;;17.25;10.63;;;;;;;;;;4933596;29;20134;-82
2022/04/13 09:15:28;;;;;;;19.77;10.38;;;;;;;;;;4947070;29;20050;-80
2022/04/13 09:17:55;;;;;;;16.50;9.98;;;;;;;;;;4935218;29;20051;-80
2022/04/13 09:20:24;;;;;;;21.88;11.07;;;;;;;;;;4933678;29;20049;-81
2022/04/13 09:22:54;;;;;;;24.33;10.50;;;;;;;;;;4935545;29;20060;-81
2022/04/13 09:25:22;;;;;;;18.38;9.40;;;;;;;;;;4937665;29;20461;-80
2022/04/13 09:27:49;;;;;;;22.65;10.35;;;;;;;;;;4934863;29;20146;-80
2022/04/13 09:30:16;;;;;;;21.15;10.45;;;;;;;;;;4934239;29;20086;-81
2022/04/13 09:32:45;;;;;;;16.95;10.55;;;;;;;;;;4934667;29;20082;-80
2022/04/13 09:35:12;;;;;;;19.05;9.93;;;;;;;;;;4916530;29;20052;-81
2022/04/13 09:37:39;;;;;;;19.23;10.73;;;;;;;;;;4949123;29;20189;-81
2022/04/13 09:40:07;;;;;;;18.83;10.30;;;;;;;;;;4934519;29;20468;-80
2022/04/13 09:42:35;;;;;;;17.40;11.00;;;;;;;;;;4933350;29;20179;-80
2022/04/13 09:45:04;;;;;;;20.95;10.00;;;;;;;;;;4931856;29;20072;-80
2022/04/13 09:47:33;;;;;;;18.60;9.60;;;;;;;;;;4963726;28;20453;-80
2022/04/13 09:50:01;;;;;;;19.50;10.40;;;;;;;;;;4947215;29;20062;-80
2022/04/13 09:52:41;;;;;;;16.00;10.13;;;;;;;;;;4933303;29;20138;-79
2022/04/13 09:55:09;;;;;;;18.98;10.02;;;;;;;;;;4933712;29;20112;-80
2022/04/13 09:57:36;;;;;;;18.55;10.15;;;;;;;;;;4932387;29;20122;-80
2022/04/13 10:00:05;;;;;;;16.80;10.27;;;;;;;;;;4932485;29;20051;-80
2022/04/13 10:02:38;;;;;;;23.17;11.38;;;;;;;;;;4932798;29;20108;-80
2022/04/13 10:05:06;;;;;;;18.55;10.35;;;;;;;;;;4947942;29;20501;-80
2022/04/13 10:07:34;;;;;;;18.95;9.75;;;;;;;;;;4930953;29;20083;-80
2022/04/13 10:10:02;;;;;;;16.52;10.02;;;;;;;;;;4946773;29;20479;-80
2022/04/13 10:12:46;;;;;;;16.20;9.63;;;;;;;;;;4932195;29;20095;-80
2022/04/13 10:15:14;;;;;;;17.65;10.25;;;;;;;;;;4930952;29;20417;-80
2022/04/13 10:17:41;;;;;;;17.88;11.05;;;;;;;;;;4931744;29;20195;-80
2022/04/13 10:20:09;;;;;;;16.20;10.55;;;;;;;;;;4931854;29;20083;-80
2022/04/13 10:22:56;;;;;;;19.92;9.65;;;;;;;;;;4931622;29;20091;-80
2022/04/13 10:25:26;;;;;;;18.08;10.40;;;;;;;;;;4932203;29;20096;-79
2022/04/13 10:27:58;;;;;;;15.60;10.35;;;;;;;;;;4932509;29;20493;-80
2022/04/13 10:30:30;;;;;;;19.38;10.00;;;;;;;;;;4930420;29;20075;-79
2022/04/13 10:33:18;;;;;;;15.77;10.07;;;;;;;;;;4931331;29;20086;-79
2022/04/13 10:35:46;;;;;;;19.90;10.20;;;;;;;;;;4930219;29;20054;-80
2022/04/13 10:38:13;;;;;;;16.05;9.25;;;;;;;;;;4932527;29;20063;-79
2022/04/13 10:40:41;;;;;;;19.92;9.85;;;;;;;;;;4930205;29;20107;-80
2022/04/13 10:43:11;;;;;;;19.50;9.13;;;;;;;;;;4931212;29;20613;-80
2022/04/13 10:45:45;;;;;;;17.38;9.63;;;;;;;;;;4931281;29;20087;-80
2022/04/13 10:48:13;;;;;;;;;;;;;;;;;;4932604;29;20107;-80
2022/04/13 10:50:40;;;;;;;17.80;10.38;;;;;;;;;;4932951;29;20025;-81
2022/04/13 10:53:20;;;;;;;16.60;9.85;;;;;;;;;;4950664;28;20747;-79
2022/04/13 10:55:53;;;;;;;19.13;10.27;;;;;;;;;;4936312;29;20138;-80
2022/04/13 10:58:40;;;;;;;18.65;9.98;;;;;;;;;;4932234;28;20155;-81
2022/04/13 11:01:11;;;;;;;25.67;10.10;;;;;;;;;;4930146;29;20134;-81
2022/04/13 11:03:39;;;;;;;30.13;11.05;;;;;;;;;;4932136;29;20056;-81
2022/04/13 11:06:11;;;;;;;18.70;9.55;;;;;;;;;;4947410;29;20783;-81
2022/04/13 11:08:55;;;;;;;19.05;10.23;;;;;;;;;;4932908;29;20075;-82
2022/04/13 11:11:23;;;;;;;28.20;10.57;;;;;;;;;;5027315;23;20138;-75
2022/04/13 11:13:52;;;;;;;17.23;9.90;;;;;;;;;;4957387;28;20134;-74
2022/04/13 11:16:20;;;;;;;17.17;9.57;;;;;;;;;;4957043;28;20739;-75
2022/04/13 11:19:05;;;;;;;16.80;9.50;;;;;;;;;;4948371;28;20051;-75
2022/04/13 11:21:34;;;;;;;18.45;10.35;;;;;;;;;;4947389;29;20091;-75
2022/04/13 11:24:01;;;;;;;18.63;9.65;;;;;;;;;;4948430;28;20166;-75
2022/04/13 11:26:29;;;;;;;21.90;10.40;;;;;;;;;;4948173;28;20818;-75
2022/04/13 11:29:15;;;;;;;19.65;9.75;;;;;;;;;;4948600;28;20093;-75
2022/04/13 11:32:01;;;;;;;14.63;10.35;;;;;;;;;;4947526;28;20515;-75
2022/04/13 11:34:39;;;;;;;19.15;9.80;;;;;;;;;;4947948;28;20083;-75
2022/04/13 11:37:08;;;;;;;17.25;9.57;;;;;;;;;;4952815;28;20839;-75
2022/04/13 11:39:55;;;;;;;43.63;12.05;;;;;;;;;;4947875;29;20139;-75
2022/04/13 11:42:25;;;;;;;18.02;9.77;;;;;;;;;;4946136;29;20150;-75
2022/04/13 11:44:55;;;;;;;21.67;10.57;;;;;;;;;;4948084;28;20584;-75
2022/04/13 11:47:22;;;;;;;19.95;10.82;;;;;;;;;;4948010;28;20579;-75
2022/04/13 11:49:56;;;;;;;29.00;12.25;;;;;;;;;;4947697;28;20648;-76
2022/04/13 11:52:40;;;;;;;18.30;11.30;;;;;;;;;;4946821;29;20141;-76
2022/04/13 11:55:16;;;;;;;36.95;11.18;;;;;;;;;;4947858;28;20151;-76
2022/04/13 11:58:02;;;;;;;22.85;12.77;;;;;;;;;;4947507;28;20142;-75
2022/04/13 12:00:46;;;;;;;23.52;12.38;;;;;;;;;;4947627;28;20484;-75
2022/04/13 12:03:17;;;;;;;22.85;11.35;;;;;;;;;;4947930;28;20074;-75
2022/04/13 12:05:46;;;;;;;17.02;10.75;;;;;;;;;;4947758;29;20564;-76
2022/04/13 12:08:14;;;;;;;21.63;12.57;;;;;;;;;;4948016;28;20054;-76
2022/04/13 12:10:55;;;;;;;24.48;13.07;;;;;;;;;;4947366;28;20200;-75
2022/04/13 12:13:23;;;;;;;80.05;13.55;;;;;;;;;;4947312;28;20134;-75
2022/04/13 12:15:52;;;;;;;22.77;11.70;;;;;;;;;;4946897;29;20062;-75
2022/04/13 12:18:20;;;;;;;22.15;11.85;;;;;;;;;;4947800;28;20234;-74
2022/04/13 12:20:48;;;;;;;17.73;12.00;;;;;;;;;;4947381;28;20130;-75
2022/04/13 12:23:15;;;;;;;18.40;12.48;;;;;;;;;;4946049;29;20083;-75
2022/04/13 12:25:43;;;;;;;19.83;12.55;;;;;;;;;;4948165;28;20126;-75
2022/04/13 12:28:11;;;;;;;21.35;13.38;;;;;;;;;;4946430;29;20139;-75
2022/04/13 12:30:38;;;;;;;21.42;13.02;;;;;;;;;;4945704;29;20083;-74
2022/04/13 12:33:21;;;;;;;23.02;13.00;;;;;;;;;;4947361;28;20091;-75
2022/04/13 12:36:05;;;;;;;31.60;14.50;;;;;;;;;;4946531;28;20176;-75
2022/04/13 12:38:33;;;;;;;19.20;12.90;;;;;;;;;;4947993;28;20142;-82
2022/04/13 12:41:01;;;;;;;18.15;12.45;;;;;;;;;;4947939;28;20130;-81
2022/04/13 12:43:29;;;;;;;26.48;13.73;;;;;;;;;;4949040;28;20457;-81
2022/04/13 12:45:56;;;;;;;23.65;12.65;;;;;;;;;;4948594;28;20094;-80
2022/04/13 12:48:29;;;;;;;27.67;14.00;;;;;;;;;;4947285;28;20477;-81
2022/04/13 12:51:00;;;;;;;23.77;14.25;;;;;;;;;;4943378;29;20082;-75
2022/04/13 12:53:28;;;;;;;24.20;13.52;;;;;;;;;;4945514;29;20051;-75
2022/04/13 12:55:56;;;;;;;24.65;13.55;;;;;;;;;;4946297;29;20151;-75
2022/04/13 12:58:24;;;;;;;22.42;13.10;;;;;;;;;;4946820;29;20063;-81
2022/04/13 13:00:53;;;;;;;24.58;12.63;;;;;;;;;;4947208;29;20082;-75
2022/04/13 13:03:21;;;;;;;26.13;11.68;;;;;;;;;;4950702;28;20058;-75
2022/04/13 13:05:48;;;;;;;19.83;10.73;;;;;;;;;;4946356;28;20734;-75
2022/04/13 13:08:16;;;;;;;22.67;10.77;;;;;;;;;;4950474;28;20078;-75
2022/04/13 13:10:45;;;;;;;22.65;11.38;;;;;;;;;;4948638;29;20563;-75
2022/04/13 13:13:19;;;;;;;19.58;9.82;;;;;;;;;;4950277;28;20126;-75
2022/04/13 13:15:47;;;;;;;19.63;9.30;;;;;;;;;;4948879;28;20488;-75
2022/04/13 13:18:16;;;;;;;23.90;11.02;;;;;;;;;;4950559;28;20055;-75
2022/04/13 13:20:54;;;;;;;19.08;10.20;;;;;;;;;;4950063;28;20138;-75
2022/04/13 13:23:25;;;;;;;26.02;10.45;;;;;;;;;;4950399;28;20134;-75
2022/04/13 13:25:52;;;;;;;16.92;10.13;;;;;;;;;;4950842;28;20082;-75
2022/04/13 13:28:24;;;;;;;19.45;9.98;;;;;;;;;;4950741;28;20165;-75
2022/04/13 13:30:52;;;;;;;17.42;9.68;;;;;;;;;;4962343;28;20138;-74
2022/04/13 13:33:19;;;;;;;19.35;9.98;;;;;;;;;;4949800;28;20055;-74
2022/04/13 13:35:46;;;;;;;32.20;9.90;;;;;;;;;;4968096;28;20051;-74
2022/04/13 13:38:18;;;;;;;19.05;9.80;;;;;;;;;;4950612;28;20089;-74
2022/04/13 13:40:47;;;;;;;18.20;9.45;;;;;;;;;;4949924;28;20779;-74
2022/04/13 13:43:18;;;;;;;25.88;9.88;;;;;;;;;;4957238;28;20735;-74
2022/04/13 13:45:46;;;;;;;19.35;8.82;;;;;;;;;;4949383;28;20110;-74
2022/04/13 13:48:21;;;;;;;16.88;9.50;;;;;;;;;;4950038;28;20055;-74
2022/04/13 13:50:52;;;;;;;15.20;9.43;;;;;;;;;;4950037;28;20055;-74
2022/04/13 13:53:20;;;;;;;19.92;10.60;;;;;;;;;;4950010;28;20087;-74
2022/04/13 13:55:47;;;;;;;19.73;8.85;;;;;;;;;;4949208;28;20171;-74
2022/04/13 13:58:20;;;;;;;21.88;11.00;;;;;;;;;;4949705;29;20063;-74
2022/04/13 14:00:48;;;;;;;19.60;10.88;;;;;;;;;;4949711;28;20054;-75
2022/04/13 14:03:16;;;;;;;24.40;10.63;;;;;;;;;;4950622;28;20058;-74
2022/04/13 14:05:44;;;;;;;18.55;11.02;;;;;;;;;;4949533;29;20109;-75
2022/04/13 14:08:12;;;;;;;19.08;10.00;;;;;;;;;;4949254;28;20188;-75
2022/04/13 14:10:39;;;;;;;15.05;8.90;;;;;;;;;;4949580;28;20484;-75
2022/04/13 14:13:08;;;;;;;17.60;9.95;;;;;;;;;;4949594;28;20051;-75
2022/04/13 14:15:35;;;;;;;23.73;9.70;;;;;;;;;;4947723;29;20138;-75
2022/04/13 14:18:03;;;;;;;33.28;9.88;;;;;;;;;;4954229;28;20047;-75
2022/04/13 14:20:30;;;;;;;20.00;9.88;;;;;;;;;;4947602;29;20170;-75
2022/04/13 14:22:58;;;;;;;18.45;9.73;;;;;;;;;;4949384;28;20082;-75
2022/04/13 14:25:25;;;;;;;16.95;9.73;;;;;;;;;;4947499;29;20485;-75
2022/04/13 14:27:53;;;;;;;18.17;8.88;;;;;;;;;;4949438;28;20047;-75
2022/04/13 14:30:22;;;;;;;33.47;10.77;;;;;;;;;;4949248;28;20569;-75
2022/04/13 14:32:49;;;;;;;19.00;10.00;;;;;;;;;;4948221;28;20162;-76
2022/04/13 14:35:17;;;;;;;16.90;10.10;;;;;;;;;;4948585;29;20130;-75
2022/04/13 14:37:48;;;;;;;28.25;14.30;;;;;;;;;;4948932;28;20062;-75
2022/04/13 14:40:16;;;;;;;25.52;8.85;;;;;;;;;;4949474;28;20106;-75
2022/04/13 14:42:43;;;;;;;21.90;9.82;;;;;;;;;;4949336;28;20087;-75